.
WxDataArchive / Data Records for 2012-02-24
2012-02-23 February 2012 2012-02-25

Data Records for Friday, 24 February 2012

Time	Temp	Chill	HIndex	Humid	Dewpt	 Wind 	HiWind	WindDir	Rain 	Barom 
-----	----	-----	------	-----	-----	------	------	-------	-----	----- 
00:00	34.7	34.7	34.7	94	33.2	3	10	112	0.00	29.464 
00:05	34.7	34.7	34.7	94	33.2	3	10	112	0.00	29.464 
00:10	34.6	31.1	34.6	94	33.1	4	10	112	0.01	29.464 
00:15	34.6	31.1	34.6	94	33.1	4	13	112	0.00	29.458 
00:20	34.6	31.1	34.6	94	33.1	4	10	112	0.00	29.458 
00:25	34.6	31.1	34.6	94	33.1	4	9	112	0.00	29.458 
00:30	34.6	29.3	34.6	94	33.1	6	12	112	0.00	29.436 
00:35	34.6	34.6	34.6	94	33.1	2	6	112	0.00	29.436 
00:40	34.7	34.7	34.7	94	33.2	3	14	112	0.00	29.436 
00:45	34.7	31.2	34.7	94	33.2	4	11	90	0.00	29.450 
00:50	34.7	31.2	34.7	94	33.2	4	7	90	0.00	29.450 
00:55	34.7	30.2	34.7	94	33.2	5	13	112	0.00	29.450 
01:00	34.7	31.2	34.7	94	33.2	4	10	90	0.00	29.430 
01:05	34.7	34.7	34.7	94	33.2	3	9	90	0.00	29.430 
01:10	34.7	34.7	34.7	94	33.2	3	12	90	0.00	29.430 
01:15	34.7	34.7	34.7	94	33.2	3	6	112	0.00	29.445 
01:20	34.7	34.7	34.7	94	33.2	1	5	135	0.00	29.445 
01:25	34.7	34.7	34.7	94	33.2	1	4	112	0.00	29.445 
01:30	34.7	34.7	34.7	94	33.2	2	6	90	0.00	29.431 
01:35	34.6	31.1	34.6	94	33.1	4	9	90	0.00	29.431 
01:40	34.6	30.1	34.6	94	33.1	5	12	90	0.00	29.431 
01:45	34.6	29.3	34.6	94	33.1	6	13	90	0.00	29.430 
01:50	34.6	31.1	34.6	94	33.1	4	10	90	0.00	29.430 
01:55	34.4	30.8	34.4	94	32.9	4	8	90	0.00	29.430 
02:00	34.4	30.8	34.4	94	32.9	4	11	90	0.00	29.415 
02:05	34.4	30.8	34.4	94	32.9	4	10	112	0.00	29.415 
02:10	34.3	30.7	34.3	94	32.8	4	10	112	0.00	29.415 
02:15	34.3	34.3	34.3	95	33.0	3	6	112	0.00	29.402 
02:20	34.3	30.7	34.3	95	33.0	4	9	112	0.00	29.402 
02:25	34.3	34.3	34.3	95	33.0	3	6	112	0.00	29.402 
02:30	34.3	30.7	34.3	95	33.0	4	8	112	0.00	29.398 
02:35	34.4	30.8	34.4	95	33.1	4	11	90	0.00	29.398 
02:40	34.6	31.1	34.6	95	33.3	4	10	112	0.00	29.398 
02:45	34.7	31.2	34.7	95	33.4	4	9	90	0.00	29.399 
02:50	34.7	30.2	34.7	95	33.4	5	11	90	0.00	29.399 
02:55	34.7	31.2	34.7	95	33.4	4	12	112	0.00	29.399 
03:00	34.7	34.7	34.7	95	33.4	3	7	90	0.00	29.399 
03:05	34.7	30.2	34.7	95	33.4	5	11	112	0.00	29.399 
03:10	34.9	30.5	34.9	95	33.6	5	10	90	0.00	29.399 
03:15	34.9	30.5	34.9	95	33.6	5	12	90	0.00	29.380 
03:20	34.9	34.9	34.9	95	33.6	3	7	90	0.00	29.380 
03:25	35.0	30.6	35.0	95	33.7	5	11	90	0.00	29.380 
03:30	35.0	35.0	35.0	95	33.7	3	7	90	0.00	29.371 
03:35	35.0	31.5	35.0	95	33.7	4	10	90	0.00	29.371 
03:40	35.0	29.8	35.0	94	33.5	6	11	90	0.00	29.371 
03:45	35.0	31.5	35.0	94	33.5	4	13	90	0.00	29.358 
03:50	35.0	30.6	35.0	94	33.5	5	9	90	0.00	29.358 
03:55	35.0	30.6	35.0	94	33.5	5	11	90	0.00	29.358 
04:00	35.0	31.5	35.0	94	33.5	4	9	90	0.00	29.364 
04:05	35.0	30.6	35.0	94	33.5	5	13	90	0.00	29.364 
04:10	35.0	31.5	35.0	94	33.5	4	10	90	0.00	29.364 
04:15	34.9	31.4	34.9	94	33.4	4	8	90	0.00	29.354 
04:20	34.9	34.9	34.9	94	33.4	3	7	90	0.00	29.354 
04:25	34.9	34.9	34.9	94	33.4	2	6	90	0.00	29.354 
04:30	34.9	34.9	34.9	94	33.4	2	5	90	0.00	29.365 
04:35	34.9	34.9	34.9	94	33.4	3	6	90	0.00	29.365 
04:40	34.9	31.4	34.9	95	33.6	4	10	112	0.00	29.365 
04:45	34.9	34.9	34.9	95	33.6	2	5	112	0.00	29.351 
04:50	34.9	34.9	34.9	95	33.6	3	6	90	0.00	29.351 
04:55	34.9	34.9	34.9	95	33.6	2	5	90	0.00	29.351 
05:00	35.0	35.0	35.0	95	33.7	2	6	90	0.00	29.349 
05:05	35.0	35.0	35.0	95	33.7	3	9	90	0.00	29.349 
05:10	35.0	35.0	35.0	95	33.7	1	4	90	0.00	29.349 
05:15	35.0	35.0	35.0	95	33.7	3	5	90	0.00	29.350 
05:20	35.0	35.0	35.0	95	33.7	1	4	90	0.00	29.350 
05:25	35.0	35.0	35.0	95	33.7	1	3	90	0.00	29.350 
05:30	35.0	35.0	35.0	95	33.7	2	4	90	0.00	29.347 
05:35	35.0	35.0	35.0	95	33.7	1	3	90	0.00	29.347 
05:40	35.0	35.0	35.0	95	33.7	0	2	90	0.00	29.347 
05:45	35.2	35.2	35.2	95	33.9	2	3	90	0.00	29.334 
05:50	35.2	35.2	35.2	95	33.9	2	9	90	0.00	29.334 
05:55	35.2	35.2	35.2	95	33.9	1	4	90	0.00	29.334 
06:00	35.2	35.2	35.2	95	33.9	2	6	112	0.00	29.332 
06:05	35.2	35.2	35.2	95	33.9	1	3	112	0.00	29.332 
06:10	35.2	35.2	35.2	96	34.2	1	4	112	0.00	29.332 
06:15	35.2	35.2	35.2	96	34.2	1	4	112	0.00	29.322 
06:20	35.2	35.2	35.2	96	34.2	2	3	112	0.00	29.322 
06:25	35.3	35.3	35.3	96	34.3	0	2	112	0.00	29.322 
06:30	35.3	35.3	35.3	96	34.3	0	2	112	0.00	29.327 
06:35	35.3	35.3	35.3	96	34.3	0	1	112	0.00	29.327 
06:40	35.3	35.3	35.3	96	34.3	0	2	225	0.00	29.327 
06:45	35.3	35.3	35.3	96	34.3	0	1	225	0.00	29.335 
06:50	35.5	35.5	35.5	96	34.5	0	2	225	0.00	29.335 
06:55	35.5	35.5	35.5	96	34.5	0	2	225	0.00	29.335 
07:00	35.5	35.5	35.5	96	34.5	0	1	225	0.00	29.332 
07:05	35.6	35.6	35.6	96	34.6	0	2	225	0.00	29.332 
07:10	35.6	35.6	35.6	96	34.6	0	2	225	0.00	29.332 
07:15	35.8	35.8	35.8	96	34.8	0	2	225	0.00	29.327 
07:20	35.9	35.9	35.9	96	34.9	0	3	135	0.00	29.327 
07:25	36.0	36.0	36.0	96	35.0	0	1	135	0.00	29.327 
07:30	36.3	36.3	36.3	96	35.3	0	2	270	0.00	29.327 
07:35	36.6	36.6	36.6	96	35.6	1	4	248	0.00	29.327 
07:40	37.0	37.0	37.0	96	36.0	2	5	248	0.00	29.327 
07:45	37.5	37.5	37.5	96	36.5	2	7	248	0.00	29.330 
07:50	37.9	37.9	37.9	96	36.9	2	5	248	0.00	29.330 
07:55	38.3	38.3	38.3	96	37.3	2	6	270	0.00	29.330 
08:00	38.6	38.6	38.6	96	37.6	3	7	248	0.00	29.328 
08:05	38.9	38.9	38.9	96	37.9	3	11	248	0.00	29.328 
08:10	39.1	39.1	39.1	96	38.1	3	10	248	0.00	29.328 
08:15	39.2	36.4	39.2	96	38.2	4	12	248	0.00	29.324 
08:20	39.5	35.9	39.5	96	38.5	5	12	248	0.00	29.324 
08:25	39.8	36.2	39.8	96	38.8	5	12	248	0.00	29.324 
08:30	39.9	36.4	39.9	95	38.6	5	12	270	0.00	29.332 
08:35	40.2	37.5	40.2	94	38.6	4	11	270	0.00	29.332 
08:40	40.3	37.7	40.3	93	38.4	4	12	248	0.00	29.332 
08:45	40.3	37.7	40.3	92	38.2	4	9	248	0.00	29.334 
08:50	40.5	37.9	40.5	90	37.8	4	11	248	0.00	29.334 
08:55	40.6	37.2	40.6	88	37.3	5	13	248	0.00	29.334 
09:00	40.6	35.3	40.6	86	36.7	8	22	270	0.01	29.337 
09:05	40.3	36.1	40.3	84	35.9	6	14	248	0.00	29.337 
09:10	40.2	35.4	40.2	83	35.5	7	14	270	0.00	29.337 
09:15	39.9	35.0	39.9	82	34.9	7	14	270	0.00	29.346 
09:20	39.8	35.5	39.8	82	34.8	6	18	270	0.00	29.346 
09:25	39.6	34.7	39.6	82	34.6	7	13	270	0.00	29.346 
09:30	39.5	36.7	39.5	82	34.5	4	11	248	0.00	29.350 
09:35	39.3	36.5	39.3	83	34.6	4	13	248	0.00	29.350 
09:40	39.2	35.5	39.2	82	34.2	5	14	248	0.00	29.350 
09:45	39.3	35.7	39.3	81	34.0	5	12	248	0.00	29.350 
09:50	39.3	39.3	39.3	81	34.0	3	10	248	0.00	29.350 
09:55	39.2	36.4	39.2	82	34.2	4	9	248	0.00	29.350 
10:00	38.9	35.2	38.9	81	33.6	5	13	248	0.00	29.356 
10:05	38.8	35.1	38.8	82	33.8	5	12	248	0.00	29.356 
10:10	38.6	35.7	38.6	82	33.6	4	11	248	0.00	29.356 
10:15	38.5	34.0	38.5	82	33.5	6	13	248	0.00	29.355 
10:20	38.5	34.7	38.5	83	33.8	5	13	248	0.00	29.355 
10:25	38.3	34.5	38.3	84	33.9	5	12	248	0.00	29.355 
10:30	38.2	34.4	38.2	84	33.8	5	14	248	0.00	29.363 
10:35	38.2	34.4	38.2	84	33.8	5	12	248	0.00	29.363 
10:40	38.0	34.1	38.0	84	33.6	5	14	248	0.00	29.363 
10:45	38.0	33.4	38.0	85	33.9	6	15	270	0.00	29.370 
10:50	37.9	33.3	37.9	85	33.8	6	13	270	0.00	29.370 
10:55	37.8	33.1	37.8	86	34.0	6	13	270	0.00	29.370 
11:00	37.5	33.5	37.5	87	34.0	5	12	248	0.00	29.384 
11:05	37.5	34.4	37.5	87	34.0	4	10	248	0.00	29.384 
11:10	37.3	34.2	37.3	86	33.5	4	7	270	0.00	29.384 
11:15	37.3	34.2	37.3	85	33.2	4	7	270	0.00	29.399 
11:20	37.2	33.2	37.2	84	32.8	5	10	270	0.00	29.399 
11:25	37.0	33.9	37.0	85	32.9	4	7	270	0.00	29.399 
11:30	37.2	33.2	37.2	85	33.1	5	12	270	0.00	29.415 
11:35	37.0	32.9	37.0	85	32.9	5	10	270	0.00	29.415 
11:40	36.8	33.6	36.8	85	32.7	4	6	270	0.00	29.415 
11:45	36.2	32.0	36.2	86	32.4	5	11	270	0.00	29.436 
11:50	35.8	31.5	35.8	87	32.3	5	10	270	0.00	29.436 
11:55	35.8	32.5	35.8	88	32.6	4	6	270	0.00	29.436 
12:00	35.6	32.2	35.6	88	32.4	4	9	270	0.00	29.451 
12:05	35.3	31.9	35.3	88	32.1	4	13	270	0.00	29.451 
12:10	34.9	30.5	34.9	88	31.7	5	10	270	0.00	29.451 
12:15	34.6	29.3	34.6	88	31.4	6	12	270	0.00	29.467 
12:20	34.4	29.9	34.4	88	31.2	5	9	270	0.00	29.467 
12:25	34.4	29.9	34.4	87	30.9	5	10	270	0.00	29.467 
12:30	34.6	31.1	34.6	87	31.1	4	9	270	0.00	29.482 
12:35	34.9	30.5	34.9	87	31.4	5	11	270	0.00	29.482 
12:40	35.2	30.8	35.2	85	31.2	5	12	270	0.00	29.482 
12:45	35.3	30.2	35.3	84	31.0	6	14	270	0.00	29.498 
12:50	35.3	31.9	35.3	83	30.7	4	10	292	0.00	29.498 
12:55	35.3	31.0	35.3	82	30.4	5	11	270	0.00	29.498 
13:00	35.3	31.9	35.3	81	30.1	4	9	270	0.00	29.513 
13:05	35.3	30.2	35.3	81	30.1	6	13	270	0.00	29.513 
13:10	35.3	31.0	35.3	80	29.8	5	12	270	0.00	29.513 
13:15	35.6	32.2	35.6	81	30.4	4	7	270	0.00	29.530 
13:20	35.8	30.8	35.8	80	30.2	6	11	270	0.00	29.530 
13:25	35.9	30.2	35.9	78	29.7	7	10	270	0.00	29.530 
13:30	36.0	32.7	36.0	78	29.8	4	10	270	0.00	29.543 
13:35	36.0	32.7	36.0	78	29.8	4	9	270	0.00	29.543 
13:40	36.2	32.9	36.2	79	30.3	4	8	270	0.00	29.543 
13:45	36.3	32.1	36.3	78	30.1	5	9	270	0.00	29.547 
13:50	36.6	33.4	36.6	78	30.4	4	10	270	0.00	29.547 
13:55	36.6	33.4	36.6	78	30.4	4	7	270	0.00	29.547 
14:00	36.6	33.4	36.6	78	30.4	4	6	270	0.00	29.561 
14:05	36.8	31.9	36.8	79	30.9	6	12	270	0.00	29.561 
14:10	36.8	32.7	36.8	78	30.6	5	10	270	0.00	29.561 
14:15	36.8	32.7	36.8	78	30.6	5	11	270	0.00	29.570 
14:20	37.0	32.9	37.0	78	30.8	5	13	270	0.00	29.570 
14:25	36.5	32.4	36.5	80	30.9	5	10	270	0.00	29.570 
14:30	36.2	32.0	36.2	82	31.2	5	9	270	0.00	29.589 
14:35	36.5	32.4	36.5	81	31.2	5	9	270	0.00	29.589 
14:40	36.8	31.9	36.8	78	30.6	6	11	270	0.00	29.589 
14:45	36.9	33.7	36.9	78	30.7	4	10	270	0.00	29.604 
14:50	36.9	32.8	36.9	77	30.4	5	10	270	0.00	29.604 
14:55	37.0	32.9	37.0	75	29.8	5	12	270	0.00	29.604 
15:00	37.2	34.1	37.2	75	30.0	4	8	270	0.00	29.614 
15:05	37.5	33.5	37.5	75	30.3	5	10	270	0.00	29.614 
15:10	37.5	33.5	37.5	73	29.6	5	10	270	0.00	29.614 
15:15	37.5	33.5	37.5	71	29.0	5	12	270	0.00	29.631 
15:20	37.5	33.5	37.5	72	29.3	5	10	270	0.00	29.631 
15:25	37.2	34.1	37.2	74	29.7	4	15	270	0.00	29.631 
15:30	36.9	32.8	36.9	75	29.7	5	11	270	0.00	29.652 
15:35	36.3	32.1	36.3	79	30.4	5	11	270	0.00	29.652 
15:40	35.5	31.2	35.5	82	30.6	5	9	270	0.00	29.652 
15:45	35.3	31.0	35.3	83	30.7	5	10	270	0.00	29.668 
15:50	35.3	31.9	35.3	83	30.7	4	7	270	0.00	29.668 
15:55	35.2	30.8	35.2	82	30.3	5	9	270	0.00	29.668 
16:00	35.0	31.5	35.0	83	30.4	4	7	270	0.00	29.679 
16:05	35.0	35.0	35.0	83	30.4	3	9	270	0.00	29.679 
16:10	34.9	34.9	34.9	84	30.6	3	9	270	0.00	29.679 
16:15	34.9	31.4	34.9	84	30.6	4	7	270	0.00	29.690 
16:20	34.9	31.4	34.9	84	30.6	4	7	270	0.00	29.690 
16:25	34.9	34.9	34.9	84	30.6	3	7	270	0.00	29.690 
16:30	35.0	31.5	35.0	83	30.4	4	10	270	0.00	29.701 
16:35	35.0	31.5	35.0	82	30.1	4	9	270	0.00	29.701 
16:40	34.9	31.4	34.9	82	30.0	4	8	270	0.00	29.701 
16:45	34.9	30.5	34.9	82	30.0	5	11	270	0.00	29.709 
16:50	34.7	34.7	34.7	83	30.1	3	9	248	0.00	29.709 
16:55	34.6	31.1	34.6	83	30.0	4	9	270	0.00	29.709 
17:00	34.4	30.8	34.4	84	30.1	4	10	270	0.00	29.719 
17:05	34.3	29.8	34.3	84	30.0	5	9	270	0.00	29.719 
17:10	34.1	30.5	34.1	84	29.8	4	10	270	0.00	29.719 
17:15	34.1	30.5	34.1	84	29.8	4	7	270	0.00	29.735 
17:20	34.1	30.5	34.1	84	29.8	4	9	270	0.00	29.735 
17:25	34.1	29.5	34.1	83	29.5	5	10	270	0.00	29.735 
17:30	34.1	29.5	34.1	81	28.9	5	11	270	0.00	29.748 
17:35	34.3	29.8	34.3	81	29.1	5	9	270	0.00	29.748 
17:40	34.1	30.5	34.1	81	28.9	4	7	270	0.00	29.748 
17:45	34.1	30.5	34.1	81	28.9	4	10	270	0.00	29.755 
17:50	34.0	30.4	34.0	81	28.8	4	7	270	0.00	29.755 
17:55	34.1	34.1	34.1	81	28.9	3	7	270	0.00	29.755 
18:00	34.0	30.4	34.0	80	28.5	4	6	270	0.00	29.768 
18:05	34.0	30.4	34.0	79	28.2	4	9	270	0.00	29.768 
18:10	34.0	30.4	34.0	77	27.6	4	12	270	0.00	29.768 
18:15	33.8	30.2	33.8	76	27.1	4	7	270	0.00	29.779 
18:20	34.0	30.4	34.0	75	26.9	4	6	270	0.00	29.779 
18:25	33.8	29.2	33.8	74	26.4	5	10	270	0.00	29.779 
18:30	33.8	30.2	33.8	74	26.4	4	6	270	0.00	29.782 
18:35	33.8	30.2	33.8	73	26.1	4	9	270	0.00	29.782 
18:40	33.8	33.8	33.8	73	26.1	3	6	270	0.00	29.782 
18:45	33.8	33.8	33.8	73	26.1	3	6	270	0.00	29.793 
18:50	33.7	33.7	33.7	74	26.3	3	6	270	0.00	29.793 
18:55	33.5	33.5	33.5	74	26.1	3	6	270	0.00	29.793 
19:00	33.4	33.4	33.4	74	26.0	3	5	248	0.00	29.797 
19:05	33.4	33.4	33.4	75	26.3	3	6	270	0.00	29.797 
19:10	33.4	33.4	33.4	75	26.3	3	8	270	0.00	29.797 
19:15	33.4	33.4	33.4	75	26.3	3	6	270	0.00	29.806 
19:20	33.4	33.4	33.4	75	26.3	3	6	270	0.00	29.806 
19:25	33.2	29.5	33.2	76	26.5	4	7	270	0.00	29.806 
19:30	33.1	33.1	33.1	77	26.7	3	6	248	0.00	29.809 
19:35	32.9	32.9	32.9	78	26.8	3	6	270	0.00	29.809 
19:40	32.9	32.9	32.9	78	26.8	3	6	270	0.00	29.809 
19:45	32.9	32.9	32.9	78	26.8	3	5	248	0.00	29.812 
19:50	32.9	32.9	32.9	79	27.1	2	4	248	0.00	29.812 
19:55	32.7	32.7	32.7	81	27.5	3	5	270	0.00	29.812 
20:00	32.7	32.7	32.7	82	27.8	2	4	225	0.00	29.819 
20:05	32.5	32.5	32.5	83	27.9	2	5	248	0.00	29.819 
20:10	32.4	32.4	32.4	84	28.1	2	4	248	0.00	29.819 
20:15	32.4	32.4	32.4	84	28.1	2	3	292	0.00	29.824 
20:20	32.4	32.4	32.4	84	28.1	2	3	270	0.00	29.824 
20:25	32.4	32.4	32.4	85	28.4	1	4	270	0.00	29.824 
20:30	32.4	32.4	32.4	85	28.4	2	5	248	0.00	29.825 
20:35	32.4	28.5	32.4	85	28.4	4	9	270	0.00	29.825 
20:40	32.4	28.5	32.4	84	28.1	4	10	270	0.00	29.825 
20:45	32.4	28.5	32.4	81	27.2	4	8	270	0.00	29.828 
20:50	32.5	28.7	32.5	80	27.0	4	10	270	0.00	29.828 
20:55	32.4	28.5	32.4	79	26.6	4	7	270	0.00	29.828 
21:00	32.4	27.5	32.4	78	26.3	5	10	270	0.00	29.836 
21:05	32.4	28.5	32.4	77	26.0	4	7	270	0.00	29.836 
21:10	32.4	28.5	32.4	77	26.0	4	7	270	0.00	29.836 
21:15	32.2	32.2	32.2	78	26.1	3	6	248	0.00	29.844 
21:20	32.2	28.3	32.2	78	26.1	4	7	270	0.00	29.844 
21:25	32.2	32.2	32.2	79	26.4	3	7	248	0.00	29.844 
21:30	32.2	32.2	32.2	79	26.4	3	6	248	0.00	29.844 
21:35	32.1	32.1	32.1	80	26.6	3	6	270	0.00	29.844 
21:40	31.9	28.0	31.9	81	26.7	4	10	270	0.00	29.844 
21:45	31.2	25.3	31.2	82	26.4	6	12	270	0.00	29.847 
21:50	30.4	26.2	30.4	85	26.4	4	9	270	0.00	29.847 
21:55	30.0	25.8	30.0	87	26.6	4	7	270	0.00	29.847 
22:00	30.0	25.8	30.0	87	26.6	4	7	270	0.00	29.849 
22:05	30.0	25.8	30.0	87	26.6	4	6	270	0.00	29.849 
22:10	30.0	25.8	30.0	86	26.3	4	10	270	0.00	29.849 
22:15	30.1	25.9	30.1	85	26.1	4	8	270	0.00	29.852 
22:20	30.1	25.9	30.1	84	25.9	4	7	270	0.00	29.852 
22:25	30.1	24.8	30.1	82	25.3	5	12	270	0.00	29.852 
22:30	30.1	24.8	30.1	81	25.0	5	11	270	0.00	29.858 
22:35	30.1	24.8	30.1	79	24.4	5	11	270	0.00	29.858 
22:40	30.1	25.9	30.1	79	24.4	4	7	270	0.00	29.858 
22:45	30.1	25.9	30.1	78	24.1	4	12	270	0.00	29.861 
22:50	30.3	30.3	30.3	78	24.3	3	7	270	0.00	29.861 
22:55	30.3	26.1	30.3	78	24.3	4	6	270	0.00	29.861 
23:00	30.3	30.3	30.3	78	24.3	3	6	270	0.00	29.862 
23:05	30.3	30.3	30.3	79	24.6	3	11	248	0.00	29.862 
23:10	30.0	25.8	30.0	77	23.7	4	10	270	0.00	29.862 
23:15	29.7	24.4	29.7	76	23.1	5	12	270	0.00	29.868 
23:20	29.5	25.2	29.5	74	22.3	4	8	270	0.00	29.868 
23:25	29.4	24.0	29.4	73	21.8	5	10	270	0.00	29.868 
23:30	29.4	29.4	29.4	73	21.8	3	6	270	0.00	29.873 
23:35	29.3	25.0	29.3	73	21.7	4	11	270	0.00	29.873 
23:40	29.1	24.7	29.1	72	21.2	4	9	248	0.00	29.873 
23:45	29.0	29.0	29.0	72	21.1	3	6	248	0.00	29.873 
23:50	28.8	28.8	28.8	72	20.9	3	6	248	0.00	29.873 
23:55	28.8	28.8	28.8	72	20.9	3	5	270	0.00	29.873 

CoCoRaHS
IN-AL-39
A2 Web Hosting
Creative Commons License
GoDaddy
search engine by freefind advanced

loaded 2018-11-15 13:35:21 • last modified 2010-11-18 10:43:29
Privacy PolicyDisclaimer
• wx.awcolley.com is powered by PmWiki v.2002016 •
• all content (unless otherwise noted) © 2018 A W Colley